sensor_id;sensor_type;location;lat;lon;timestamp;temperature;humidity
66873;HTU21D;53781;51.090;5.884;2022-10-26T00:00:09;14.20;77.07
66873;HTU21D;53781;51.090;5.884;2022-10-26T00:00:27;14.21;77.16
66873;HTU21D;53781;51.090;5.884;2022-10-26T00:00:42;14.21;77.18
66873;HTU21D;53781;51.090;5.884;2022-10-26T00:01:04;14.22;77.11
66873;HTU21D;53781;51.090;5.884;2022-10-26T00:01:20;14.21;77.14
66873;HTU21D;53781;51.090;5.884;2022-10-26T00:01:35;14.22;77.15
66873;HTU21D;53781;51.090;5.884;2022-10-26T00:01:49;14.22;77.18
66873;HTU21D;53781;51.090;5.884;2022-10-26T00:02:04;14.22;77.18
66873;HTU21D;53781;51.090;5.884;2022-10-26T00:02:19;14.22;77.18
66873;HTU21D;53781;51.090;5.884;2022-10-26T00:02:33;14.20;77.24
66873;HTU21D;53781;51.090;5.884;2022-10-26T00:02:48;14.21;77.28
66873;HTU21D;53781;51.090;5.884;2022-10-26T00:03:03;14.21;77.24
66873;HTU21D;53781;51.090;5.884;2022-10-26T00:03:18;14.20;77.26
66873;HTU21D;53781;51.090;5.884;2022-10-26T00:03:34;14.21;77.31
66873;HTU21D;53781;51.090;5.884;2022-10-26T00:03:49;14.22;77.32
66873;HTU21D;53781;51.090;5.884;2022-10-26T00:04:04;14.23;77.32
66873;HTU21D;53781;51.090;5.884;2022-10-26T00:04:18;14.23;77.29
66873;HTU21D;53781;51.090;5.884;2022-10-26T00:04:33;14.22;77.31
66873;HTU21D;53781;51.090;5.884;2022-10-26T00:04:48;14.22;77.31
66873;HTU21D;53781;51.090;5.884;2022-10-26T00:05:03;14.22;77.29
66873;HTU21D;53781;51.090;5.884;2022-10-26T00:05:18;14.21;77.31
66873;HTU21D;53781;51.090;5.884;2022-10-26T00:05:33;14.22;77.33
66873;HTU21D;53781;51.090;5.884;2022-10-26T00:05:48;14.23;77.29
66873;HTU21D;53781;51.090;5.884;2022-10-26T00:06:11;14.23;77.30
66873;HTU21D;53781;51.090;5.884;2022-10-26T00:06:26;14.22;77.27
66873;HTU21D;53781;51.090;5.884;2022-10-26T00:06:42;14.23;77.22
66873;HTU21D;53781;51.090;5.884;2022-10-26T00:06:57;14.23;77.22
66873;HTU21D;53781;51.090;5.884;2022-10-26T00:07:11;14.22;77.24
66873;HTU21D;53781;51.090;5.884;2022-10-26T00:07:28;14.22;77.18
66873;HTU21D;53781;51.090;5.884;2022-10-26T00:07:43;14.23;77.18
66873;HTU21D;53781;51.090;5.884;2022-10-26T00:07:58;14.22;77.18
66873;HTU21D;53781;51.090;5.884;2022-10-26T00:08:13;14.22;77.15
66873;HTU21D;53781;51.090;5.884;2022-10-26T00:08:28;14.23;77.11
66873;HTU21D;53781;51.090;5.884;2022-10-26T00:08:43;14.21;77.11
66873;HTU21D;53781;51.090;5.884;2022-10-26T00:08:58;14.22;77.18
66873;HTU21D;53781;51.090;5.884;2022-10-26T00:09:13;14.22;77.18
66873;HTU21D;53781;51.090;5.884;2022-10-26T00:09:27;14.21;77.18
66873;HTU21D;53781;51.090;5.884;2022-10-26T00:09:42;14.21;77.13
66873;HTU21D;53781;51.090;5.884;2022-10-26T00:09:57;14.22;77.18
66873;HTU21D;53781;51.090;5.884;2022-10-26T00:10:12;14.22;77.20
66873;HTU21D;53781;51.090;5.884;2022-10-26T00:10:27;14.21;77.16
66873;HTU21D;53781;51.090;5.884;2022-10-26T00:10:41;14.22;77.18
66873;HTU21D;53781;51.090;5.884;2022-10-26T00:10:57;14.22;77.16
66873;HTU21D;53781;51.090;5.884;2022-10-26T00:11:12;14.22;77.18
66873;HTU21D;53781;51.090;5.884;2022-10-26T00:11:27;14.23;77.17
66873;HTU21D;53781;51.090;5.884;2022-10-26T00:11:42;14.23;77.18
66873;HTU21D;53781;51.090;5.884;2022-10-26T00:11:57;14.23;77.15
66873;HTU21D;53781;51.090;5.884;2022-10-26T00:12:11;14.22;77.21
66873;HTU21D;53781;51.090;5.884;2022-10-26T00:12:26;14.22;77.23
66873;HTU21D;53781;51.090;5.884;2022-10-26T00:12:41;14.21;77.22
66873;HTU21D;53781;51.090;5.884;2022-10-26T00:12:56;14.22;77.23
66873;HTU21D;53781;51.090;5.884;2022-10-26T00:13:11;14.22;77.26
66873;HTU21D;53781;51.090;5.884;2022-10-26T00:13:26;14.23;77.21
66873;HTU21D;53781;51.090;5.884;2022-10-26T00:13:44;14.23;77.18
66873;HTU21D;53781;51.090;5.884;2022-10-26T00:13:58;14.21;77.10
66873;HTU21D;53781;51.090;5.884;2022-10-26T00:14:13;14.22;77.15
66873;HTU21D;53781;51.090;5.884;2022-10-26T00:14:28;14.23;77.11
66873;HTU21D;53781;51.090;5.884;2022-10-26T00:14:43;14.22;77.16
66873;HTU21D;53781;51.090;5.884;2022-10-26T00:14:57;14.20;77.08
66873;HTU21D;53781;51.090;5.884;2022-10-26T00:15:12;14.22;77.07
66873;HTU21D;53781;51.090;5.884;2022-10-26T00:15:28;14.21;77.07
66873;HTU21D;53781;51.090;5.884;2022-10-26T00:15:42;14.22;77.05
66873;HTU21D;53781;51.090;5.884;2022-10-26T00:15:57;14.24;77.07
66873;HTU21D;53781;51.090;5.884;2022-10-26T00:16:29;14.25;77.02
66873;HTU21D;53781;51.090;5.884;2022-10-26T00:16:44;14.23;77.00
66873;HTU21D;53781;51.090;5.884;2022-10-26T00:16:59;14.24;76.94
66873;HTU21D;53781;51.090;5.884;2022-10-26T00:17:14;14.22;77.01
66873;HTU21D;53781;51.090;5.884;2022-10-26T00:17:29;14.23;77.02
66873;HTU21D;53781;51.090;5.884;2022-10-26T00:17:44;14.22;77.00
66873;HTU21D;53781;51.090;5.884;2022-10-26T00:17:59;14.23;77.01
66873;HTU21D;53781;51.090;5.884;2022-10-26T00:18:14;14.23;77.01
66873;HTU21D;53781;51.090;5.884;2022-10-26T00:18:28;14.24;77.06
66873;HTU21D;53781;51.090;5.884;2022-10-26T00:18:44;14.24;77.02
66873;HTU21D;53781;51.090;5.884;2022-10-26T00:18:59;14.23;77.07
66873;HTU21D;53781;51.090;5.884;2022-10-26T00:19:13;14.23;77.02
66873;HTU21D;53781;51.090;5.884;2022-10-26T00:19:28;14.23;77.06
66873;HTU21D;53781;51.090;5.884;2022-10-26T00:19:46;14.22;76.96
66873;HTU21D;53781;51.090;5.884;2022-10-26T00:20:00;14.23;76.94
66873;HTU21D;53781;51.090;5.884;2022-10-26T00:20:15;14.23;77.02
66873;HTU21D;53781;51.090;5.884;2022-10-26T00:20:31;14.23;77.02
66873;HTU21D;53781;51.090;5.884;2022-10-26T00:20:46;14.23;77.03
66873;HTU21D;53781;51.090;5.884;2022-10-26T00:21:02;14.23;76.98
66873;HTU21D;53781;51.090;5.884;2022-10-26T00:21:18;14.21;77.04
66873;HTU21D;53781;51.090;5.884;2022-10-26T00:21:33;14.23;76.98
66873;HTU21D;53781;51.090;5.884;2022-10-26T00:21:48;14.22;77.02
66873;HTU21D;53781;51.090;5.884;2022-10-26T00:22:03;14.24;76.99
66873;HTU21D;53781;51.090;5.884;2022-10-26T00:22:17;14.23;76.97
66873;HTU21D;53781;51.090;5.884;2022-10-26T00:22:32;14.22;77.03
66873;HTU21D;53781;51.090;5.884;2022-10-26T00:22:47;14.25;77.04
66873;HTU21D;53781;51.090;5.884;2022-10-26T00:23:02;14.23;77.02
66873;HTU21D;53781;51.090;5.884;2022-10-26T00:23:16;14.23;76.96
66873;HTU21D;53781;51.090;5.884;2022-10-26T00:23:34;14.21;76.96
66873;HTU21D;53781;51.090;5.884;2022-10-26T00:23:49;14.22;76.97
66873;HTU21D;53781;51.090;5.884;2022-10-26T00:24:04;14.22;76.96
66873;HTU21D;53781;51.090;5.884;2022-10-26T00:24:18;14.22;76.93
66873;HTU21D;53781;51.090;5.884;2022-10-26T00:24:33;14.23;76.92
66873;HTU21D;53781;51.090;5.884;2022-10-26T00:24:48;14.22;76.93
66873;HTU21D;53781;51.090;5.884;2022-10-26T00:25:03;14.21;76.97
66873;HTU21D;53781;51.090;5.884;2022-10-26T00:25:18;14.21;76.99
66873;HTU21D;53781;51.090;5.884;2022-10-26T00:25:33;14.21;76.97
66873;HTU21D;53781;51.090;5.884;2022-10-26T00:25:54;14.21;76.96
66873;HTU21D;53781;51.090;5.884;2022-10-26T00:26:10;14.20;76.97
66873;HTU21D;53781;51.090;5.884;2022-10-26T00:26:25;14.21;76.92
66873;HTU21D;53781;51.090;5.884;2022-10-26T00:26:40;14.21;76.95
66873;HTU21D;53781;51.090;5.884;2022-10-26T00:26:55;14.20;76.97
66873;HTU21D;53781;51.090;5.884;2022-10-26T00:27:09;14.21;76.95
66873;HTU21D;53781;51.090;5.884;2022-10-26T00:27:24;14.21;76.95
66873;HTU21D;53781;51.090;5.884;2022-10-26T00:27:39;14.22;76.96
66873;HTU21D;53781;51.090;5.884;2022-10-26T00:27:53;14.21;76.94
66873;HTU21D;53781;51.090;5.884;2022-10-26T00:28:08;14.22;76.89
66873;HTU21D;53781;51.090;5.884;2022-10-26T00:28:23;14.23;76.89
66873;HTU21D;53781;51.090;5.884;2022-10-26T00:28:38;14.21;76.94
66873;HTU21D;53781;51.090;5.884;2022-10-26T00:28:53;14.22;76.89
66873;HTU21D;53781;51.090;5.884;2022-10-26T00:29:10;14.20;76.92
66873;HTU21D;53781;51.090;5.884;2022-10-26T00:29:25;14.21;76.85
66873;HTU21D;53781;51.090;5.884;2022-10-26T00:29:40;14.20;76.86
66873;HTU21D;53781;51.090;5.884;2022-10-26T00:29:55;14.22;76.85
66873;HTU21D;53781;51.090;5.884;2022-10-26T00:30:09;14.21;76.89
66873;HTU21D;53781;51.090;5.884;2022-10-26T00:30:24;14.21;76.84
66873;HTU21D;53781;51.090;5.884;2022-10-26T00:30:39;14.20;76.85
66873;HTU21D;53781;51.090;5.884;2022-10-26T00:30:54;14.20;76.87
66873;HTU21D;53781;51.090;5.884;2022-10-26T00:31:13;14.21;76.82
66873;HTU21D;53781;51.090;5.884;2022-10-26T00:31:28;14.20;76.86
66873;HTU21D;53781;51.090;5.884;2022-10-26T00:31:43;14.20;76.88
66873;HTU21D;53781;51.090;5.884;2022-10-26T00:31:58;14.19;76.85
66873;HTU21D;53781;51.090;5.884;2022-10-26T00:32:13;14.18;76.86
66873;HTU21D;53781;51.090;5.884;2022-10-26T00:32:27;14.19;76.88
66873;HTU21D;53781;51.090;5.884;2022-10-26T00:32:42;14.18;76.91
66873;HTU21D;53781;51.090;5.884;2022-10-26T00:32:57;14.18;76.89
66873;HTU21D;53781;51.090;5.884;2022-10-26T00:33:12;14.17;76.95
66873;HTU21D;53781;51.090;5.884;2022-10-26T00:33:27;14.18;76.92
66873;HTU21D;53781;51.090;5.884;2022-10-26T00:33:43;14.18;76.96
66873;HTU21D;53781;51.090;5.884;2022-10-26T00:33:58;14.17;76.97
66873;HTU21D;53781;51.090;5.884;2022-10-26T00:34:13;14.15;77.00
66873;HTU21D;53781;51.090;5.884;2022-10-26T00:34:27;14.15;77.05
66873;HTU21D;53781;51.090;5.884;2022-10-26T00:34:42;14.18;77.04
66873;HTU21D;53781;51.090;5.884;2022-10-26T00:34:57;14.17;77.04
66873;HTU21D;53781;51.090;5.884;2022-10-26T00:35:12;14.18;77.06
66873;HTU21D;53781;51.090;5.884;2022-10-26T00:35:26;14.15;77.01
66873;HTU21D;53781;51.090;5.884;2022-10-26T00:35:41;14.18;76.98
66873;HTU21D;53781;51.090;5.884;2022-10-26T00:35:56;14.15;77.02
66873;HTU21D;53781;51.090;5.884;2022-10-26T00:36:11;14.17;77.02
66873;HTU21D;53781;51.090;5.884;2022-10-26T00:36:27;14.15;76.97
66873;HTU21D;53781;51.090;5.884;2022-10-26T00:36:42;14.18;77.03
66873;HTU21D;53781;51.090;5.884;2022-10-26T00:36:57;14.17;77.06
66873;HTU21D;53781;51.090;5.884;2022-10-26T00:37:12;14.18;77.05
66873;HTU21D;53781;51.090;5.884;2022-10-26T00:37:27;14.18;77.09
66873;HTU21D;53781;51.090;5.884;2022-10-26T00:37:42;14.18;77.14
66873;HTU21D;53781;51.090;5.884;2022-10-26T00:37:57;14.18;77.15
66873;HTU21D;53781;51.090;5.884;2022-10-26T00:38:12;14.18;77.19
66873;HTU21D;53781;51.090;5.884;2022-10-26T00:38:26;14.18;77.15
66873;HTU21D;53781;51.090;5.884;2022-10-26T00:38:41;14.20;77.17
66873;HTU21D;53781;51.090;5.884;2022-10-26T00:38:59;14.18;77.13
66873;HTU21D;53781;51.090;5.884;2022-10-26T00:39:14;14.20;77.12
66873;HTU21D;53781;51.090;5.884;2022-10-26T00:39:28;14.20;77.13
66873;HTU21D;53781;51.090;5.884;2022-10-26T00:39:43;14.20;77.09
66873;HTU21D;53781;51.090;5.884;2022-10-26T00:39:58;14.18;77.13
66873;HTU21D;53781;51.090;5.884;2022-10-26T00:40:12;14.19;77.12
66873;HTU21D;53781;51.090;5.884;2022-10-26T00:40:28;14.21;77.11
66873;HTU21D;53781;51.090;5.884;2022-10-26T00:40:43;14.19;77.05
66873;HTU21D;53781;51.090;5.884;2022-10-26T00:40:58;14.21;77.03
66873;HTU21D;53781;51.090;5.884;2022-10-26T00:41:17;14.21;77.04
66873;HTU21D;53781;51.090;5.884;2022-10-26T00:41:33;14.20;77.00
66873;HTU21D;53781;51.090;5.884;2022-10-26T00:41:48;14.20;77.03
66873;HTU21D;53781;51.090;5.884;2022-10-26T00:42:03;14.19;76.95
66873;HTU21D;53781;51.090;5.884;2022-10-26T00:42:20;14.19;76.95
66873;HTU21D;53781;51.090;5.884;2022-10-26T00:42:35;14.20;76.92
66873;HTU21D;53781;51.090;5.884;2022-10-26T00:42:50;14.20;76.95
66873;HTU21D;53781;51.090;5.884;2022-10-26T00:43:13;14.20;76.95
66873;HTU21D;53781;51.090;5.884;2022-10-26T00:43:44;14.19;76.87
66873;HTU21D;53781;51.090;5.884;2022-10-26T00:43:59;14.19;76.92
66873;HTU21D;53781;51.090;5.884;2022-10-26T00:45:35;14.20;76.92
66873;HTU21D;53781;51.090;5.884;2022-10-26T00:45:53;14.18;76.91
66873;HTU21D;53781;51.090;5.884;2022-10-26T00:46:31;14.19;76.89
66873;HTU21D;53781;51.090;5.884;2022-10-26T00:46:48;14.19;76.97
66873;HTU21D;53781;51.090;5.884;2022-10-26T00:47:04;14.20;76.96
66873;HTU21D;53781;51.090;5.884;2022-10-26T00:47:39;14.19;76.98
66873;HTU21D;53781;51.090;5.884;2022-10-26T00:48:03;14.19;77.03
66873;HTU21D;53781;51.090;5.884;2022-10-26T00:48:35;14.19;77.04
66873;HTU21D;53781;51.090;5.884;2022-10-26T00:49:02;14.21;77.05
66873;HTU21D;53781;51.090;5.884;2022-10-26T00:49:19;14.18;77.07
66873;HTU21D;53781;51.090;5.884;2022-10-26T00:49:35;14.20;77.08
66873;HTU21D;53781;51.090;5.884;2022-10-26T00:49:54;14.19;77.07
66873;HTU21D;53781;51.090;5.884;2022-10-26T00:50:18;14.20;77.08
66873;HTU21D;53781;51.090;5.884;2022-10-26T00:50:43;14.20;77.08
66873;HTU21D;53781;51.090;5.884;2022-10-26T00:51:04;14.20;77.09
66873;HTU21D;53781;51.090;5.884;2022-10-26T00:51:31;14.22;77.15
66873;HTU21D;53781;51.090;5.884;2022-10-26T00:51:51;14.20;77.12
66873;HTU21D;53781;51.090;5.884;2022-10-26T00:52:08;14.19;77.16
66873;HTU21D;53781;51.090;5.884;2022-10-26T00:52:23;14.21;77.14
66873;HTU21D;53781;51.090;5.884;2022-10-26T00:52:39;14.19;77.11
66873;HTU21D;53781;51.090;5.884;2022-10-26T00:52:57;14.22;77.07
66873;HTU21D;53781;51.090;5.884;2022-10-26T00:53:13;14.21;77.08
66873;HTU21D;53781;51.090;5.884;2022-10-26T00:53:29;14.21;77.08
66873;HTU21D;53781;51.090;5.884;2022-10-26T00:53:45;14.21;77.05
66873;HTU21D;53781;51.090;5.884;2022-10-26T00:54:04;14.23;77.05
66873;HTU21D;53781;51.090;5.884;2022-10-26T00:54:19;14.21;76.99
66873;HTU21D;53781;51.090;5.884;2022-10-26T00:54:34;14.19;76.98
66873;HTU21D;53781;51.090;5.884;2022-10-26T00:54:50;14.20;77.02
66873;HTU21D;53781;51.090;5.884;2022-10-26T00:55:07;14.20;77.07
66873;HTU21D;53781;51.090;5.884;2022-10-26T00:55:26;14.20;77.02
66873;HTU21D;53781;51.090;5.884;2022-10-26T00:55:48;14.21;77.10
66873;HTU21D;53781;51.090;5.884;2022-10-26T00:56:05;14.20;77.08
66873;HTU21D;53781;51.090;5.884;2022-10-26T00:56:20;14.18;77.08
66873;HTU21D;53781;51.090;5.884;2022-10-26T00:56:35;14.19;77.12
66873;HTU21D;53781;51.090;5.884;2022-10-26T00:56:52;14.20;77.13
66873;HTU21D;53781;51.090;5.884;2022-10-26T00:57:08;14.20;77.15
66873;HTU21D;53781;51.090;5.884;2022-10-26T00:57:24;14.19;77.15
66873;HTU21D;53781;51.090;5.884;2022-10-26T00:57:40;14.19;77.13
66873;HTU21D;53781;51.090;5.884;2022-10-26T00:57:55;14.19;77.08
66873;HTU21D;53781;51.090;5.884;2022-10-26T00:58:11;14.19;77.12
66873;HTU21D;53781;51.090;5.884;2022-10-26T00:58:26;14.19;77.16
66873;HTU21D;53781;51.090;5.884;2022-10-26T00:58:42;14.18;77.10
66873;HTU21D;53781;51.090;5.884;2022-10-26T00:59:02;14.18;77.11
66873;HTU21D;53781;51.090;5.884;2022-10-26T00:59:20;14.18;77.11
66873;HTU21D;53781;51.090;5.884;2022-10-26T00:59:36;14.18;77.15
66873;HTU21D;53781;51.090;5.884;2022-10-26T00:59:54;14.19;77.08
66873;HTU21D;53781;51.090;5.884;2022-10-26T01:00:10;14.18;77.05
66873;HTU21D;53781;51.090;5.884;2022-10-26T01:00:25;14.18;77.11
66873;HTU21D;53781;51.090;5.884;2022-10-26T01:00:41;14.17;77.14
66873;HTU21D;53781;51.090;5.884;2022-10-26T01:00:58;14.15;77.06
66873;HTU21D;53781;51.090;5.884;2022-10-26T01:01:13;14.15;77.09
66873;HTU21D;53781;51.090;5.884;2022-10-26T01:01:31;14.15;77.12
66873;HTU21D;53781;51.090;5.884;2022-10-26T01:01:48;14.19;77.12
66873;HTU21D;53781;51.090;5.884;2022-10-26T01:02:04;14.17;77.12
66873;HTU21D;53781;51.090;5.884;2022-10-26T01:02:19;14.18;77.16
66873;HTU21D;53781;51.090;5.884;2022-10-26T01:02:34;14.18;77.20
66873;HTU21D;53781;51.090;5.884;2022-10-26T01:02:54;14.17;77.21
66873;HTU21D;53781;51.090;5.884;2022-10-26T01:03:10;14.17;77.17
66873;HTU21D;53781;51.090;5.884;2022-10-26T01:03:26;14.18;77.19
66873;HTU21D;53781;51.090;5.884;2022-10-26T01:03:41;14.17;77.24
66873;HTU21D;53781;51.090;5.884;2022-10-26T01:03:58;14.17;77.24
66873;HTU21D;53781;51.090;5.884;2022-10-26T01:04:14;14.18;77.27
66873;HTU21D;53781;51.090;5.884;2022-10-26T01:04:29;14.17;77.24
66873;HTU21D;53781;51.090;5.884;2022-10-26T01:04:45;14.17;77.27
66873;HTU21D;53781;51.090;5.884;2022-10-26T01:05:02;14.15;77.23
66873;HTU21D;53781;51.090;5.884;2022-10-26T01:05:18;14.19;77.25
66873;HTU21D;53781;51.090;5.884;2022-10-26T01:05:36;14.17;77.18
66873;HTU21D;53781;51.090;5.884;2022-10-26T01:05:55;14.19;77.24
66873;HTU21D;53781;51.090;5.884;2022-10-26T01:06:11;14.19;77.30
66873;HTU21D;53781;51.090;5.884;2022-10-26T01:06:32;14.19;77.26
66873;HTU21D;53781;51.090;5.884;2022-10-26T01:06:48;14.19;77.31
66873;HTU21D;53781;51.090;5.884;2022-10-26T01:07:05;14.18;77.24
66873;HTU21D;53781;51.090;5.884;2022-10-26T01:07:20;14.19;77.23
66873;HTU21D;53781;51.090;5.884;2022-10-26T01:07:36;14.19;77.29
66873;HTU21D;53781;51.090;5.884;2022-10-26T01:07:52;14.18;77.27
66873;HTU21D;53781;51.090;5.884;2022-10-26T01:08:08;14.18;77.23
66873;HTU21D;53781;51.090;5.884;2022-10-26T01:08:24;14.20;77.28
66873;HTU21D;53781;51.090;5.884;2022-10-26T01:08:43;14.18;77.21
66873;HTU21D;53781;51.090;5.884;2022-10-26T01:08:58;14.21;77.22
66873;HTU21D;53781;51.090;5.884;2022-10-26T01:09:13;14.21;77.21
66873;HTU21D;53781;51.090;5.884;2022-10-26T01:09:28;14.20;77.23
66873;HTU21D;53781;51.090;5.884;2022-10-26T01:09:44;14.21;77.20
66873;HTU21D;53781;51.090;5.884;2022-10-26T01:10:00;14.21;77.18
66873;HTU21D;53781;51.090;5.884;2022-10-26T01:10:15;14.21;77.21
66873;HTU21D;53781;51.090;5.884;2022-10-26T01:10:30;14.20;77.18
66873;HTU21D;53781;51.090;5.884;2022-10-26T01:10:45;14.21;77.15
66873;HTU21D;53781;51.090;5.884;2022-10-26T01:11:00;14.21;77.16
66873;HTU21D;53781;51.090;5.884;2022-10-26T01:11:15;14.21;77.20
66873;HTU21D;53781;51.090;5.884;2022-10-26T01:11:30;14.21;77.14
66873;HTU21D;53781;51.090;5.884;2022-10-26T01:11:45;14.22;77.15
66873;HTU21D;53781;51.090;5.884;2022-10-26T01:12:00;14.22;77.14
66873;HTU21D;53781;51.090;5.884;2022-10-26T01:12:14;14.21;77.18
66873;HTU21D;53781;51.090;5.884;2022-10-26T01:12:29;14.23;77.21
66873;HTU21D;53781;51.090;5.884;2022-10-26T01:12:44;14.21;77.21
66873;HTU21D;53781;51.090;5.884;2022-10-26T01:13:00;14.23;77.22
66873;HTU21D;53781;51.090;5.884;2022-10-26T01:13:16;14.22;77.24
66873;HTU21D;53781;51.090;5.884;2022-10-26T01:13:33;14.22;77.21
66873;HTU21D;53781;51.090;5.884;2022-10-26T01:13:52;14.20;77.24
66873;HTU21D;53781;51.090;5.884;2022-10-26T01:14:09;14.22;77.29
66873;HTU21D;53781;51.090;5.884;2022-10-26T01:14:27;14.21;77.24
66873;HTU21D;53781;51.090;5.884;2022-10-26T01:14:42;14.20;77.25
66873;HTU21D;53781;51.090;5.884;2022-10-26T01:14:58;14.24;77.29
66873;HTU21D;53781;51.090;5.884;2022-10-26T01:15:13;14.21;77.27
66873;HTU21D;53781;51.090;5.884;2022-10-26T01:16:10;14.23;77.34
66873;HTU21D;53781;51.090;5.884;2022-10-26T01:17:22;14.22;77.33
66873;HTU21D;53781;51.090;5.884;2022-10-26T01:17:55;14.22;77.34
66873;HTU21D;53781;51.090;5.884;2022-10-26T01:19:07;14.22;77.32
66873;HTU21D;53781;51.090;5.884;2022-10-26T01:19:20;14.21;77.27
66873;HTU21D;53781;51.090;5.884;2022-10-26T01:20:41;14.22;77.34
66873;HTU21D;53781;51.090;5.884;2022-10-26T01:22:15;14.21;77.45
66873;HTU21D;53781;51.090;5.884;2022-10-26T01:23:57;14.23;77.31
66873;HTU21D;53781;51.090;5.884;2022-10-26T01:27:49;14.24;77.47
66873;HTU21D;53781;51.090;5.884;2022-10-26T01:27:59;14.24;77.41
66873;HTU21D;53781;51.090;5.884;2022-10-26T01:28:19;14.24;77.44
66873;HTU21D;53781;51.090;5.884;2022-10-26T01:30:29;14.25;77.42
66873;HTU21D;53781;51.090;5.884;2022-10-26T01:30:46;14.25;77.41
66873;HTU21D;53781;51.090;5.884;2022-10-26T01:31:07;14.27;77.38
66873;HTU21D;53781;51.090;5.884;2022-10-26T01:31:33;14.25;77.35
66873;HTU21D;53781;51.090;5.884;2022-10-26T01:32:14;14.26;77.32
66873;HTU21D;53781;51.090;5.884;2022-10-26T01:32:51;14.26;77.31
66873;HTU21D;53781;51.090;5.884;2022-10-26T01:33:59;14.26;77.34
66873;HTU21D;53781;51.090;5.884;2022-10-26T01:35:14;14.27;77.48
66873;HTU21D;53781;51.090;5.884;2022-10-26T01:35:41;14.27;77.50
66873;HTU21D;53781;51.090;5.884;2022-10-26T01:36:11;14.27;77.47
66873;HTU21D;53781;51.090;5.884;2022-10-26T01:36:47;14.28;77.40
66873;HTU21D;53781;51.090;5.884;2022-10-26T01:37:15;14.28;77.37
66873;HTU21D;53781;51.090;5.884;2022-10-26T01:37:39;14.28;77.38
66873;HTU21D;53781;51.090;5.884;2022-10-26T01:38:10;14.29;77.32
66873;HTU21D;53781;51.090;5.884;2022-10-26T01:39:41;14.30;77.29
66873;HTU21D;53781;51.090;5.884;2022-10-26T01:40:10;14.29;77.30
66873;HTU21D;53781;51.090;5.884;2022-10-26T01:40:46;14.29;77.32
66873;HTU21D;53781;51.090;5.884;2022-10-26T01:41:35;14.29;77.29
66873;HTU21D;53781;51.090;5.884;2022-10-26T01:41:56;14.29;77.30
66873;HTU21D;53781;51.090;5.884;2022-10-26T01:42:15;14.29;77.27
66873;HTU21D;53781;51.090;5.884;2022-10-26T01:42:31;14.32;77.27
66873;HTU21D;53781;51.090;5.884;2022-10-26T01:42:53;14.30;77.27
66873;HTU21D;53781;51.090;5.884;2022-10-26T01:43:13;14.29;77.25
66873;HTU21D;53781;51.090;5.884;2022-10-26T01:43:34;14.30;77.21
66873;HTU21D;53781;51.090;5.884;2022-10-26T01:43:56;14.30;77.24
66873;HTU21D;53781;51.090;5.884;2022-10-26T01:44:31;14.32;77.15
66873;HTU21D;53781;51.090;5.884;2022-10-26T01:44:52;14.32;77.13
66873;HTU21D;53781;51.090;5.884;2022-10-26T01:45:13;14.33;77.18
66873;HTU21D;53781;51.090;5.884;2022-10-26T01:45:30;14.32;77.11
66873;HTU21D;53781;51.090;5.884;2022-10-26T01:45:49;14.32;77.10
66873;HTU21D;53781;51.090;5.884;2022-10-26T01:46:06;14.38;76.96
66873;HTU21D;53781;51.090;5.884;2022-10-26T01:46:26;14.35;77.01
66873;HTU21D;53781;51.090;5.884;2022-10-26T01:46:45;14.35;77.03
66873;HTU21D;53781;51.090;5.884;2022-10-26T01:47:03;14.34;77.06
66873;HTU21D;53781;51.090;5.884;2022-10-26T01:47:20;14.35;77.11
66873;HTU21D;53781;51.090;5.884;2022-10-26T01:47:38;14.34;77.08
66873;HTU21D;53781;51.090;5.884;2022-10-26T01:47:55;14.34;77.14
66873;HTU21D;53781;51.090;5.884;2022-10-26T01:48:17;14.35;77.08
66873;HTU21D;53781;51.090;5.884;2022-10-26T01:48:33;14.37;77.10
66873;HTU21D;53781;51.090;5.884;2022-10-26T01:48:54;14.34;77.08
66873;HTU21D;53781;51.090;5.884;2022-10-26T01:49:12;14.34;77.05
66873;HTU21D;53781;51.090;5.884;2022-10-26T01:49:34;14.34;77.06
66873;HTU21D;53781;51.090;5.884;2022-10-26T01:49:54;14.34;77.15
66873;HTU21D;53781;51.090;5.884;2022-10-26T01:50:10;14.33;77.12
66873;HTU21D;53781;51.090;5.884;2022-10-26T01:50:26;14.34;77.14
66873;HTU21D;53781;51.090;5.884;2022-10-26T01:50:44;14.34;77.12
66873;HTU21D;53781;51.090;5.884;2022-10-26T01:51:02;14.34;77.13
66873;HTU21D;53781;51.090;5.884;2022-10-26T01:51:20;14.35;77.15
66873;HTU21D;53781;51.090;5.884;2022-10-26T01:51:38;14.35;77.11
66873;HTU21D;53781;51.090;5.884;2022-10-26T01:51:53;14.36;77.10
66873;HTU21D;53781;51.090;5.884;2022-10-26T01:52:09;14.35;77.13
66873;HTU21D;53781;51.090;5.884;2022-10-26T01:52:24;14.36;77.13
66873;HTU21D;53781;51.090;5.884;2022-10-26T01:52:39;14.35;77.09
66873;HTU21D;53781;51.090;5.884;2022-10-26T01:52:53;14.35;77.15
66873;HTU21D;53781;51.090;5.884;2022-10-26T01:53:11;14.36;77.16
66873;HTU21D;53781;51.090;5.884;2022-10-26T01:53:27;14.35;77.15
66873;HTU21D;53781;51.090;5.884;2022-10-26T01:53:46;14.36;77.13
66873;HTU21D;53781;51.090;5.884;2022-10-26T01:54:00;14.35;77.15
66873;HTU21D;53781;51.090;5.884;2022-10-26T01:54:15;14.37;77.18
66873;HTU21D;53781;51.090;5.884;2022-10-26T01:54:33;14.36;77.18
66873;HTU21D;53781;51.090;5.884;2022-10-26T01:54:48;14.37;77.09
66873;HTU21D;53781;51.090;5.884;2022-10-26T01:55:49;14.38;77.14
66873;HTU21D;53781;51.090;5.884;2022-10-26T01:56:20;14.38;77.18
66873;HTU21D;53781;51.090;5.884;2022-10-26T01:56:41;14.38;77.18
66873;HTU21D;53781;51.090;5.884;2022-10-26T01:57:03;14.38;77.23
66873;HTU21D;53781;51.090;5.884;2022-10-26T01:57:20;14.37;77.24
66873;HTU21D;53781;51.090;5.884;2022-10-26T01:57:36;14.38;77.26
66873;HTU21D;53781;51.090;5.884;2022-10-26T01:57:55;14.40;77.28
66873;HTU21D;53781;51.090;5.884;2022-10-26T01:59:36;14.37;77.14
66873;HTU21D;53781;51.090;5.884;2022-10-26T02:00:07;14.37;77.13
66873;HTU21D;53781;51.090;5.884;2022-10-26T02:00:22;14.39;77.17
66873;HTU21D;53781;51.090;5.884;2022-10-26T02:00:48;14.38;77.23
66873;HTU21D;53781;51.090;5.884;2022-10-26T02:04:50;14.38;77.38
66873;HTU21D;53781;51.090;5.884;2022-10-26T02:06:19;14.39;77.34
66873;HTU21D;53781;51.090;5.884;2022-10-26T02:06:45;14.39;77.27
66873;HTU21D;53781;51.090;5.884;2022-10-26T02:07:28;14.38;77.31
66873;HTU21D;53781;51.090;5.884;2022-10-26T02:07:46;14.38;77.27
66873;HTU21D;53781;51.090;5.884;2022-10-26T02:08:54;14.39;77.31
66873;HTU21D;53781;51.090;5.884;2022-10-26T02:09:18;14.40;77.28
66873;HTU21D;53781;51.090;5.884;2022-10-26T02:11:40;14.39;77.31
66873;HTU21D;53781;51.090;5.884;2022-10-26T02:11:57;14.41;77.30
66873;HTU21D;53781;51.090;5.884;2022-10-26T02:12:30;14.40;77.32
66873;HTU21D;53781;51.090;5.884;2022-10-26T02:13:53;14.41;77.32
66873;HTU21D;53781;51.090;5.884;2022-10-26T02:14:15;14.43;77.34
66873;HTU21D;53781;51.090;5.884;2022-10-26T02:15:22;14.43;77.31
66873;HTU21D;53781;51.090;5.884;2022-10-26T02:15:56;14.44;77.29
66873;HTU21D;53781;51.090;5.884;2022-10-26T02:16:37;14.44;77.34
66873;HTU21D;53781;51.090;5.884;2022-10-26T02:17:00;14.43;77.34